Time;durP1;ratioP1;P1;durP2;ratioP2;P2;SDS_P1;SDS_P2;PMS_P1;PMS_P2;Temp;Humidity;BMP_temperature;BMP_pressure;BME280_temperature;BME280_humidity;BME280_pressure;Samples;Min_cycle;Max_cycle;Signal;HPM_P1;HPM_P2
2023/02/13 00:02:07;;;;;;;11.20;6.17;;;;;;;;;;5077115;28;20493;-92
2023/02/13 00:04:33;;;;;;;12.17;7.80;;;;;;;;;;5077057;28;20451;-92
2023/02/13 00:06:59;;;;;;;12.40;7.33;;;;;;;;;;5076357;28;20416;-90
2023/02/13 00:09:25;;;;;;;11.67;8.07;;;;;;;;;;5076060;28;20922;-91
2023/02/13 00:11:51;;;;;;;10.87;6.80;;;;;;;;;;5076677;28;20899;-81
2023/02/13 00:14:17;;;;;;;12.27;6.27;;;;;;;;;;5076143;28;20918;-88
2023/02/13 00:16:43;;;;;;;15.50;8.00;;;;;;;;;;5077013;28;20410;-79
2023/02/13 00:19:09;;;;;;;14.43;8.00;;;;;;;;;;5077227;28;20403;-93
2023/02/13 00:21:35;;;;;;;14.60;8.20;;;;;;;;;;5076760;28;21011;-92
2023/02/13 00:24:04;;;;;;;13.90;7.23;;;;;;;;;;5076059;28;20476;-85
2023/02/13 00:26:29;;;;;;;14.77;6.93;;;;;;;;;;5076472;28;20459;-93
2023/02/13 00:28:56;;;;;;;13.10;6.80;;;;;;;;;;5076829;28;20439;-82
2023/02/13 00:31:22;;;;;;;13.13;7.23;;;;;;;;;;5076939;28;20184;-81
2023/02/13 00:33:49;;;;;;;12.87;7.97;;;;;;;;;;5077252;28;20406;-92
2023/02/13 00:36:22;;;;;;;13.43;7.50;;;;;;;;;;5076968;28;20410;-93
2023/02/13 00:38:51;;;;;;;15.20;8.47;;;;;;;;;;5076732;28;20411;-80
2023/02/13 00:41:23;;;;;;;13.17;8.07;;;;;;;;;;5076508;28;20544;-79
2023/02/13 00:43:49;;;;;;;15.57;9.30;;;;;;;;;;5075747;28;20892;-93
2023/02/13 00:46:15;;;;;;;16.60;8.30;;;;;;;;;;5075596;28;20423;-79
2023/02/13 00:48:41;;;;;;;17.97;9.27;;;;;;;;;;5075672;28;20417;-94
2023/02/13 00:51:08;;;;;;;15.83;9.10;;;;;;;;;;5076284;28;20411;-91
2023/02/13 00:53:34;;;;;;;15.07;7.83;;;;;;;;;;5076267;28;20406;-92
2023/02/13 00:56:00;;;;;;;13.73;9.40;;;;;;;;;;5076343;28;20421;-93
2023/02/13 00:58:26;;;;;;;15.77;8.47;;;;;;;;;;5074970;28;20423;-81
2023/02/13 01:00:53;;;;;;;12.93;7.33;;;;;;;;;;5076125;28;20468;-93
2023/02/13 01:03:19;;;;;;;16.20;10.80;;;;;;;;;;5074899;28;20476;-90
2023/02/13 01:05:45;;;;;;;14.60;8.20;;;;;;;;;;5074388;28;20418;-91
2023/02/13 01:08:14;;;;;;;13.67;8.10;;;;;;;;;;5074975;28;20413;-81
2023/02/13 01:10:41;;;;;;;15.40;8.63;;;;;;;;;;5075538;28;20410;-90
2023/02/13 01:13:07;;;;;;;16.70;9.10;;;;;;;;;;5074904;28;20437;-85
2023/02/13 01:15:33;;;;;;;15.17;8.53;;;;;;;;;;5074989;28;20914;-86
2023/02/13 01:18:00;;;;;;;18.70;10.33;;;;;;;;;;5073627;28;20509;-87
2023/02/13 01:20:26;;;;;;;13.53;8.17;;;;;;;;;;5074086;28;20428;-89
2023/02/13 01:22:52;;;;;;;15.57;8.90;;;;;;;;;;5035483;28;20542;-89
2023/02/13 01:25:18;;;;;;;16.70;9.17;;;;;;;;;;5057874;28;20418;-89
2023/02/13 01:27:45;;;;;;;13.50;8.20;;;;;;;;;;5076397;28;20419;-91
2023/02/13 01:30:12;;;;;;;17.10;8.53;;;;;;;;;;5074707;28;20424;-92
2023/02/13 01:32:39;;;;;;;20.70;11.13;;;;;;;;;;5075397;28;20783;-89
2023/02/13 01:35:05;;;;;;;17.53;9.27;;;;;;;;;;5073697;28;20414;-88
2023/02/13 01:37:31;;;;;;;15.20;7.97;;;;;;;;;;5073494;28;20420;-87
2023/02/13 01:39:57;;;;;;;15.20;9.13;;;;;;;;;;5073568;28;20479;-86
2023/02/13 01:42:29;;;;;;;13.60;8.87;;;;;;;;;;5073073;28;20462;-89
2023/02/13 01:45:00;;;;;;;17.87;9.00;;;;;;;;;;5073113;28;20415;-86
2023/02/13 01:47:33;;;;;;;16.67;9.30;;;;;;;;;;5073921;28;20470;-90
2023/02/13 01:50:02;;;;;;;13.97;8.90;;;;;;;;;;5073794;28;20437;-89
2023/02/13 01:52:28;;;;;;;18.17;9.30;;;;;;;;;;5073326;28;20744;-86
2023/02/13 01:54:54;;;;;;;16.93;8.37;;;;;;;;;;5073149;28;20508;-87
2023/02/13 01:57:23;;;;;;;15.50;8.83;;;;;;;;;;5072786;28;20426;-88
2023/02/13 01:59:52;;;;;;;14.03;8.10;;;;;;;;;;5074312;28;20468;-87
2023/02/13 02:02:18;;;;;;;16.83;10.00;;;;;;;;;;5072825;28;20478;-85
2023/02/13 02:04:46;;;;;;;15.50;9.47;;;;;;;;;;5073129;28;20819;-88
2023/02/13 02:07:24;;;;;;;14.57;8.10;;;;;;;;;;5072960;28;20412;-88
2023/02/13 02:09:51;;;;;;;17.23;9.07;;;;;;;;;;5073064;28;20446;-88
2023/02/13 02:12:23;;;;;;;15.83;8.50;;;;;;;;;;5072717;28;20418;-88
2023/02/13 02:14:50;;;;;;;13.60;7.80;;;;;;;;;;5072994;28;20566;-88
2023/02/13 02:17:19;;;;;;;12.87;7.33;;;;;;;;;;5072099;28;20421;-88
2023/02/13 02:20:09;;;;;;;11.63;7.23;;;;;;;;;;5073387;28;20440;-89
2023/02/13 02:22:51;;;;;;;11.73;7.20;;;;;;;;;;5073435;28;21089;-90
2023/02/13 02:25:26;;;;;;;14.70;7.77;;;;;;;;;;5073535;28;20422;-86
2023/02/13 02:28:04;;;;;;;13.97;9.63;;;;;;;;;;5073159;28;20937;-90
2023/02/13 02:30:48;;;;;;;14.50;9.27;;;;;;;;;;5073884;28;20464;-90
2023/02/13 02:33:48;;;;;;;14.70;7.50;;;;;;;;;;5073465;28;20415;-90
2023/02/13 02:36:17;;;;;;;15.90;8.40;;;;;;;;;;5062722;28;20414;-92
2023/02/13 02:38:55;;;;;;;14.77;8.20;;;;;;;;;;5073808;28;20411;-91
2023/02/13 02:41:42;;;;;;;13.40;5.70;;;;;;;;;;5072901;28;20472;-91
2023/02/13 02:44:28;;;;;;;18.17;7.73;;;;;;;;;;5074277;28;20398;-89
2023/02/13 02:49:58;;;;;;;12.67;8.90;;;;;;;;;;5074510;28;20470;-90
2023/02/13 02:52:44;;;;;;;12.07;7.53;;;;;;;;;;5073194;28;20411;-90
2023/02/13 02:55:17;;;;;;;12.50;7.37;;;;;;;;;;5025185;28;20521;-89
2023/02/13 03:06:22;;;;;;;12.80;9.10;;;;;;;;;;5073680;28;20457;-88
2023/02/13 03:14:25;;;;;;;12.43;7.00;;;;;;;;;;5073462;28;20397;-81
2023/02/13 03:22:35;;;;;;;10.03;5.97;;;6.80;99.90;;;;;;5073552;28;20492;-90
2023/02/13 03:25:17;;;;;;;8.50;5.50;;;6.80;99.90;;;;;;5073669;28;20411;-86
2023/02/13 03:31:19;;;;;;;14.20;7.13;;;6.80;99.90;;;;;;5077772;28;20420;-89
2023/02/13 03:34:07;;;;;;;11.87;6.50;;;6.80;99.90;;;;;;5077776;28;20414;-87
2023/02/13 03:39:56;;;;;;;11.33;7.20;;;;;;;;;;5077542;28;20436;-89
2023/02/13 03:42:31;;;;;;;10.60;5.33;;;;;;;;;;5077103;28;20469;-88
2023/02/13 03:47:50;;;;;;;9.63;5.10;;;;;;;;;;5076768;28;20438;-86
2023/02/13 03:50:17;;;;;;;7.47;5.00;;;;;;;;;;5076956;28;20434;-87
2023/02/13 03:52:55;;;;;;;7.73;4.93;;;;;;;;;;5076071;28;20829;-89
2023/02/13 04:00:58;;;;;;;10.60;4.70;;;;;;;;;;5077536;28;20460;-87
2023/02/13 04:03:31;;;;;;;6.60;4.70;;;;;;;;;;5076978;28;20465;-86
2023/02/13 04:06:09;;;;;;;7.73;4.67;;;;;;;;;;5077187;28;20397;-89
2023/02/13 04:08:35;;;;;;;10.60;6.00;;;;;;;;;;5075894;28;20442;-88
2023/02/13 04:11:19;;;;;;;8.30;5.10;;;;;;;;;;5076546;28;20471;-89
2023/02/13 04:14:06;;;;;;;8.33;4.77;;;;;;;;;;5076623;28;20898;-88
2023/02/13 04:16:39;;;;;;;9.00;5.47;;;;;;;;;;5070883;28;20397;-83
2023/02/13 04:19:05;;;;;;;12.00;5.20;;;;;;;;;;5039026;28;21059;-83
2023/02/13 04:21:36;;;;;;;11.63;5.23;;;;;;;;;;5075173;28;20452;-88
2023/02/13 04:24:02;;;;;;;8.60;6.10;;;;;;;;;;5060539;28;20434;-85
2023/02/13 04:26:31;;;;;;;9.13;5.17;;;;;;;;;;5074923;28;20446;-86
2023/02/13 04:28:57;;;;;;;8.10;4.43;;;;;;;;;;5067072;28;20557;-88
2023/02/13 04:31:23;;;;;;;9.70;5.27;;;;;;;;;;5067900;28;20505;-82
2023/02/13 04:33:49;;;;;;;6.83;5.00;;;;;;;;;;5071160;28;20882;-87
2023/02/13 04:36:18;;;;;;;10.03;5.50;;;;;;;;;;5066284;28;20429;-86
2023/02/13 04:38:44;;;;;;;9.97;5.30;;;;;;;;;;5065359;28;20417;-89
2023/02/13 04:41:10;;;;;;;11.00;6.10;;;;;;;;;;5061642;28;20466;-88
2023/02/13 04:43:36;;;;;;;9.83;5.57;;;;;;;;;;5065570;28;20406;-88
2023/02/13 04:46:02;;;;;;;12.63;6.60;;;;;;;;;;5063823;28;20506;-81
2023/02/13 04:48:28;;;;;;;10.40;5.47;;;;;;;;;;5064932;28;20415;-81
2023/02/13 04:50:54;;;;;;;10.10;5.70;;;;;;;;;;5058324;28;20425;-85
2023/02/13 04:53:20;;;;;;;9.20;5.40;;;;;;;;;;5055807;28;20810;-86
2023/02/13 04:55:46;;;;;;;8.00;5.57;;;;;;;;;;5054429;28;20425;-87
2023/02/13 04:58:12;;;;;;;11.47;5.67;;;;;;;;;;5055674;28;20419;-87
2023/02/13 05:00:38;;;;;;;12.63;7.07;;;;;;;;;;5055863;28;20455;-88
2023/02/13 05:03:05;;;;;;;9.90;6.10;;;;;;;;;;5054619;28;20880;-87
2023/02/13 05:05:34;;;;;;;8.00;5.33;;;;;;;;;;5054726;28;20422;-82
2023/02/13 05:08:00;;;;;;;8.30;4.97;;;;;;;;;;5055798;28;20426;-88
2023/02/13 05:10:26;;;;;;;8.13;4.40;;;;;;;;;;5055952;28;21032;-89
2023/02/13 05:12:52;;;;;;;10.47;6.50;;;;;;;;;;5055795;28;20422;-88
2023/02/13 05:15:18;;;;;;;12.17;5.97;;;;;;;;;;5055807;28;20407;-87
2023/02/13 05:17:45;;;;;;;8.40;6.13;;;;;;;;;;5055492;28;20411;-87
2023/02/13 05:20:11;;;;;;;12.67;6.43;;;;;;;;;;5054542;28;20510;-88
2023/02/13 05:25:26;;;;;;;8.23;5.17;;;;;;;;;;5035098;28;20418;-85
2023/02/13 05:27:52;;;;;;;8.87;5.90;;;;;;;;;;5069054;28;20868;-81
2023/02/13 05:30:21;;;;;;;14.63;6.20;;;;;;;;;;5045504;28;20508;-83
2023/02/13 05:32:49;;;;;;;9.77;5.47;;;;;;;;;;5064676;28;20936;-87
2023/02/13 05:35:15;;;;;;;11.33;6.97;;;;;;;;;;5073590;28;20471;-89
2023/02/13 05:37:41;;;;;;;11.80;7.00;;;;;;;;;;5074782;28;20421;-88
2023/02/13 05:40:07;;;;;;;13.47;6.77;;;;;;;;;;5074841;28;20984;-89
2023/02/13 05:42:33;;;;;;;10.23;6.67;;;;;;;;;;5074383;28;20476;-87
2023/02/13 05:44:59;;;;;;;13.10;8.50;;;;;;;;;;5074771;28;20411;-87
2023/02/13 05:47:25;;;;;;;11.73;7.47;;;;;;;;;;5073795;28;20915;-89
2023/02/13 05:49:51;;;;;;;11.17;7.23;;;;;;;;;;5073434;28;20413;-89
2023/02/13 05:52:17;;;;;;;10.20;6.67;;;;;;;;;;5071543;28;20953;-83
2023/02/13 05:54:43;;;;;;;13.53;7.73;;;;;;;;;;5072492;28;20418;-81
2023/02/13 05:57:09;;;;;;;12.50;7.83;;;;;;;;;;5071698;28;20463;-82
2023/02/13 05:59:35;;;;;;;13.27;7.20;;;;;;;;;;5072682;28;20421;-83
2023/02/13 06:02:01;;;;;;;10.37;6.63;;;;;;;;;;5074315;28;20471;-86
2023/02/13 06:04:27;;;;;;;14.13;7.10;;;;;;;;;;5074259;28;20463;-83
2023/02/13 06:06:52;;;;;;;11.83;7.03;;;;;;;;;;5073211;28;20409;-82
2023/02/13 06:09:18;;;;;;;14.77;7.33;;;;;;;;;;5074565;28;20417;-81
2023/02/13 06:11:47;;;;;;;12.00;7.17;;;;;;;;;;5072814;28;20436;-80
2023/02/13 06:14:13;;;;;;;15.13;8.83;;;;;;;;;;5073141;28;20426;-85
2023/02/13 06:16:39;;;;;;;10.50;6.77;;;;;;;;;;5072674;28;20421;-81
2023/02/13 06:19:05;;;;;;;10.53;6.77;;;;;;;;;;5072633;28;20856;-80
2023/02/13 06:21:36;;;;;;;12.73;7.50;;;;;;;;;;5072606;28;20478;-80
2023/02/13 06:24:06;;;;;;;13.13;9.03;;;;;;;;;;5073316;28;20509;-86
2023/02/13 06:26:32;;;;;;;14.03;7.80;;;;;;;;;;5072144;28;20476;-84
2023/02/13 06:28:58;;;;;;;15.00;10.00;;;;;;;;;;5072385;28;20923;-82
2023/02/13 06:31:24;;;;;;;13.90;8.10;;;;;;;;;;5072274;28;20500;-88
2023/02/13 06:33:49;;;;;;;8.50;5.87;;;;;;;;;;5031356;28;20529;-88
2023/02/13 06:36:15;;;;;;;12.47;6.70;;;;;;;;;;5072473;28;20924;-88
2023/02/13 06:38:44;;;;;;;13.90;7.57;;;;;;;;;;5072793;28;20462;-85
2023/02/13 06:41:10;;;;;;;9.67;6.13;;;;;;;;;;5072190;28;20553;-88
2023/02/13 06:43:36;;;;;;;14.50;7.83;;;;;;;;;;5072355;28;20448;-83
2023/02/13 06:46:06;;;;;;;14.93;8.40;;;;;;;;;;5072027;28;20487;-89
2023/02/13 06:48:32;;;;;;;10.20;6.97;;;;;;;;;;5071975;28;20413;-85
2023/02/13 06:50:57;;;;;;;15.63;7.93;;;;;;;;;;5073068;28;20492;-87
2023/02/13 06:53:24;;;;;;;16.00;8.90;;;;;;;;;;5072834;28;20415;-84
2023/02/13 06:55:52;;;;;;;13.60;8.50;;;;;;;;;;5071195;28;20820;-86
2023/02/13 06:58:19;;;;;;;13.07;7.70;;;;;;;;;;5072834;28;20519;-88
2023/02/13 07:00:45;;;;;;;15.87;7.50;;;;;;;;;;5073334;28;20456;-90
2023/02/13 07:03:11;;;;;;;13.10;7.23;;;;;;;;;;5072196;28;20894;-89
2023/02/13 07:05:41;;;;;;;13.30;8.77;;;;;;;;;;5072256;28;20906;-85
2023/02/13 07:08:07;;;;;;;12.67;8.30;;;;;;;;;;5069860;28;20431;-84
2023/02/13 07:10:33;;;;;;;14.47;8.10;;;;;;;;;;5071107;28;20451;-85
2023/02/13 07:12:59;;;;;;;11.83;7.07;;;;;;;;;;5069838;28;20438;-86
2023/02/13 07:15:25;;;;;;;12.50;7.97;;;;;;;;;;5071515;28;20417;-86
2023/02/13 07:17:57;;;;;;;16.27;9.10;;;;;;;;;;5072615;28;20422;-86
2023/02/13 07:20:24;;;;;;;11.90;7.57;;;;;;;;;;5072446;28;20405;-80
2023/02/13 07:22:50;;;;;;;12.90;8.53;;;;;;;;;;5072606;28;20460;-81
2023/02/13 07:25:16;;;;;;;14.87;8.20;;;;;;;;;;5070868;28;20418;-80
2023/02/13 07:27:41;;;;;;;14.27;7.90;;;;;;;;;;5071227;28;20431;-80
2023/02/13 07:30:08;;;;;;;16.67;8.27;;;;;;;;;;5072385;28;20413;-81
2023/02/13 07:32:34;;;;;;;15.80;8.53;;;;;;;;;;5072369;28;20418;-80
2023/02/13 07:34:59;;;;;;;15.20;9.83;;;;;;;;;;5072536;28;20877;-80
2023/02/13 07:37:27;;;;;;;14.57;9.10;;;;;;;;;;5070595;28;20426;-81
2023/02/13 07:39:53;;;;;;;15.07;8.33;;;;;;;;;;5072429;28;20858;-80
2023/02/13 07:42:19;;;;;;;15.10;7.80;;;;;;;;;;5070192;28;20576;-81
2023/02/13 07:44:45;;;;;;;14.27;7.87;;;;;;;;;;5070755;28;20421;-80
2023/02/13 07:47:11;;;;;;;14.30;9.33;;;;;;;;;;5060449;28;20466;-81
2023/02/13 07:49:37;;;;;;;14.80;7.57;;;;;;;;;;5042005;28;20442;-80
2023/02/13 07:52:04;;;;;;;12.30;8.23;;;;;;;;;;5072126;28;20835;-81
2023/02/13 07:54:30;;;;;;;12.67;9.33;;;;;;;;;;5072111;28;20420;-80
2023/02/13 07:56:56;;;;;;;14.73;9.40;;;;;;;;;;5071668;28;20415;-81
2023/02/13 07:59:22;;;;;;;20.00;7.90;;;;;;;;;;5070818;28;20510;-80
2023/02/13 08:01:48;;;;;;;11.37;7.57;;;;;;;;;;5071908;28;20478;-81
2023/02/13 08:04:14;;;;;;;17.73;8.30;;;;;;;;;;5071896;28;20224;-81
2023/02/13 08:06:40;;;;;;;22.53;8.57;;;;;;;;;;5071983;28;20420;-79
2023/02/13 08:11:52;;;;;;;16.40;7.40;;;;;;;;;;5071583;28;20499;-85
2023/02/13 08:14:19;;;;;;;20.70;10.37;;;;;;;;;;5070289;28;20434;-84
2023/02/13 08:16:45;;;;;;;12.73;8.10;;;;;;;;;;5075586;28;20414;-79
2023/02/13 08:19:11;;;;;;;16.73;8.23;;;;;;;;;;5075529;28;20415;-79
2023/02/13 08:21:37;;;;;;;13.10;8.10;;;;;;;;;;5074183;28;20584;-79
2023/02/13 08:24:03;;;;;;;15.33;9.37;;;;;;;;;;5075434;28;20417;-80
2023/02/13 08:26:30;;;;;;;13.90;9.33;;;;;;;;;;5075128;28;20409;-79
2023/02/13 08:28:56;;;;;;;13.80;7.80;;;;;;;;;;5073970;28;20415;-79
2023/02/13 08:31:22;;;;;;;14.37;8.30;;;;;;;;;;5075382;28;20506;-80
2023/02/13 08:33:48;;;;;;;15.73;7.77;;;;;;;;;;5073854;28;20844;-82
2023/02/13 08:36:14;;;;;;;14.23;7.83;;;;;;;;;;5073813;28;20436;-84
2023/02/13 08:38:40;;;;;;;17.40;9.90;;;;;;;;;;5073159;28;20422;-85
2023/02/13 08:41:05;;;;;;;16.97;7.90;;;;;;;;;;5074708;28;20469;-86
2023/02/13 08:43:31;;;;;;;13.20;7.83;;;;;;;;;;5073732;28;20967;-87
2023/02/13 08:45:58;;;;;;;15.90;8.47;;;;;;;;;;5077678;28;20509;-86
2023/02/13 08:48:24;;;;;;;13.87;7.90;;;;;;;;;;5075861;28;20414;-87
2023/02/13 08:50:50;;;;;;;15.97;9.00;;;;;;;;;;5035478;28;20443;-87
2023/02/13 08:53:16;;;;;;;16.67;8.37;;;;;;;;;;5074883;28;20908;-88
2023/02/13 08:55:42;;;;;;;11.67;7.87;;;;;;;;;;5074987;28;20415;-86
2023/02/13 08:58:08;;;;;;;13.80;8.30;;;;;;;;;;5075571;28;20181;-84
2023/02/13 09:00:34;;;;;;;16.37;9.70;;;;;;;;;;5074988;28;20457;-88
2023/02/13 09:03:01;;;;;;;18.97;9.63;;;;;;;;;;5070831;28;20473;-89
2023/02/13 09:05:27;;;;;;;12.97;8.60;;;;;;;;;;5070773;28;20903;-88
2023/02/13 09:07:53;;;;;;;13.83;9.47;;;;;;;;;;5061929;28;20426;-82
2023/02/13 09:10:19;;;;;;;15.67;8.60;;;;;;;;;;5074394;28;20481;-82
2023/02/13 09:12:51;;;;;;;14.47;9.43;;;;;;;;;;5071767;28;20413;-86
2023/02/13 09:15:17;;;;;;;15.90;9.03;;;;;;;;;;5073652;28;20415;-87
2023/02/13 09:17:43;;;;;;;14.23;9.90;;;;;;;;;;5073606;28;20412;-85
2023/02/13 09:20:11;;;;;;;14.00;9.40;;;;;;;;;;5073406;28;20407;-86
2023/02/13 09:22:37;;;;;;;15.27;8.90;;;;;;;;;;5073496;28;20471;-88
2023/02/13 09:25:03;;;;;;;13.27;8.03;;;;;;;;;;5072989;28;20415;-81
2023/02/13 09:27:29;;;;;;;15.90;8.27;;;;;;;;;;5073219;28;20792;-85
2023/02/13 09:29:55;;;;;;;16.93;10.17;;;;;;;;;;5074577;28;20434;-83
2023/02/13 09:32:21;;;;;;;14.70;8.00;;;;;;;;;;5072908;28;20944;-85
2023/02/13 09:34:47;;;;;;;14.43;9.00;;;;;;;;;;5074447;28;20463;-82
2023/02/13 09:37:13;;;;;;;11.97;6.93;;;;;;;;;;5074402;28;20474;-86
2023/02/13 09:39:39;;;;;;;18.63;9.40;;;;;;;;;;5072891;28;20988;-86
2023/02/13 09:42:13;;;;;;;17.67;10.00;;;;;;;;;;5073133;28;20562;-82
2023/02/13 09:44:43;;;;;;;15.73;8.67;;;;;;;;;;5074267;28;20407;-87
2023/02/13 09:47:14;;;;;;;16.97;8.10;;;;;;;;;;5074177;28;20412;-86
2023/02/13 09:49:43;;;;;;;12.70;7.80;;;;;;;;;;5072822;28;20813;-84
2023/02/13 09:52:10;;;;;;;14.57;8.60;;;;;;;;;;5070752;28;21131;-85
2023/02/13 09:54:36;;;;;;;15.60;7.77;;;;;;;;;;5072608;28;20776;-87
2023/02/13 09:57:06;;;;;;;14.30;8.43;;;;;;;;;;5074901;28;20440;-87
2023/02/13 09:59:56;;;;;;;15.77;8.17;;;;;;;;;;5032619;28;20427;-89
2023/02/13 10:02:36;;;;;;;14.33;9.00;;;;;;;;;;5073014;28;20478;-84
2023/02/13 10:05:17;;;;;;;17.53;10.00;;;;;;;;;;5074023;28;20472;-86
2023/02/13 10:07:48;;;;;;;16.20;9.00;;;;;;;;;;5073581;28;20429;-81
2023/02/13 10:10:42;;;;;;;17.40;10.10;;;;;;;;;;5072625;28;20418;-85
2023/02/13 10:13:22;;;;;;;17.17;10.57;;;;;;;;;;5058203;28;20440;-83
2023/02/13 10:15:53;;;;;;;15.80;8.93;;;;;;;;;;5074375;28;20404;-85
2023/02/13 10:18:24;;;;;;;15.63;9.80;;;;;;;;;;5072280;28;20404;-82
2023/02/13 10:20:56;;;;;;;17.20;11.20;;;;;;;;;;5071929;28;20498;-82
2023/02/13 10:23:32;;;;;;;17.33;10.37;;;;;;;;;;5073389;28;20415;-81
2023/02/13 10:26:04;;;;;;;16.13;8.70;;;;;;;;;;5073005;28;20443;-85
2023/02/13 10:28:33;;;;;;;20.43;11.17;;;;;;;;;;5072115;28;20425;-84
2023/02/13 10:31:09;;;;;;;16.47;8.97;;;;;;;;;;5071781;28;20862;-83
2023/02/13 10:33:46;;;;;;;24.27;12.50;;;;;;;;;;5072146;28;20435;-79
2023/02/13 10:36:18;;;;;;;15.87;9.17;;;;;;;;;;5073439;28;20976;-86
2023/02/13 10:38:46;;;;;;;14.73;10.10;;;;;;;;;;5071096;28;20424;-81
2023/02/13 10:41:22;;;;;;;16.97;9.40;;;;;;;;;;5071931;28;20458;-89
2023/02/13 10:44:07;;;;;;;23.10;12.03;;;;;;;;;;5073653;28;20477;-87
2023/02/13 10:46:39;;;;;;;15.43;10.63;;;;;;;;;;5072760;28;20423;-90
2023/02/13 10:49:10;;;;;;;16.57;10.03;;;;;;;;;;5073008;28;20907;-86
2023/02/13 10:51:49;;;;;;;16.57;9.60;;;;;;;;;;5072856;28;20419;-91
2023/02/13 10:54:18;;;;;;;18.50;9.53;;;;;;;;;;5072475;28;20423;-90
2023/02/13 10:56:53;;;;;;;17.63;10.70;;;;;;;;;;5073600;28;20876;-89
2023/02/13 10:59:30;;;;;;;14.50;10.87;;;;;;;;;;5033534;28;20880;-85
2023/02/13 11:01:58;;;;;;;13.47;8.63;;;;;;;;;;5072841;28;20474;-89
2023/02/13 11:04:24;;;;;;;14.67;7.97;;;;;;;;;;5072363;28;20468;-88
2023/02/13 11:06:55;;;;;;;13.63;8.57;;;;;;;;;;5072587;28;20498;-84
2023/02/13 11:09:21;;;;;;;15.57;9.33;;;;;;;;;;5072913;28;20446;-79
2023/02/13 11:11:47;;;;;;;13.03;8.93;;;;;;;;;;5073910;28;20435;-91
2023/02/13 11:14:18;;;;;;;17.60;9.80;;;;;;;;;;5073619;28;20447;-93
2023/02/13 11:16:47;;;;;;;16.70;9.30;;;;;;;;;;5071844;28;20432;-85
2023/02/13 11:19:33;;;;;;;15.27;9.47;;;;;;;;;;5053490;28;20401;-85
2023/02/13 11:22:04;;;;;;;14.53;9.40;;;;;;;;;;5064624;28;20479;-93
2023/02/13 11:24:30;;;;;;;15.03;9.03;;;;;;;;;;5075351;28;20413;-91
2023/02/13 11:27:15;;;;;;;19.83;10.43;;;;;;;;;;5074146;28;20421;-93
2023/02/13 11:29:51;;;;;;;15.60;8.57;;;;;;;;;;5073702;28;20430;-91
2023/02/13 11:32:19;;;;;;;15.57;8.60;;;;;;;;;;5074191;28;20789;-85
2023/02/13 11:34:45;;;;;;;16.50;8.50;;;;;;;;;;5072194;28;20889;-86
2023/02/13 11:37:11;;;;;;;14.67;9.07;;;;;;;;;;5072992;28;20422;-92
2023/02/13 11:39:37;;;;;;;16.47;9.40;;;;;;;;;;5072183;28;20781;-92
2023/02/13 11:42:11;;;;;;;13.47;8.80;;;;;;;;;;5073363;28;20208;-88
2023/02/13 11:44:38;;;;;;;14.70;8.10;;;;;;;;;;5074344;28;20801;-84
2023/02/13 11:47:03;;;;;;;14.50;8.40;;;;;;;;;;5071367;28;20946;-83
2023/02/13 11:49:31;;;;;;;14.77;8.40;;;;;;;;;;5074457;28;20408;-86
2023/02/13 11:51:58;;;;;;;13.30;7.90;;;;;;;;;;5076435;28;20424;-90
2023/02/13 11:54:27;;;;;;;9.80;7.00;;;;;;;;;;5075008;28;20433;-80
2023/02/13 11:57:14;;;;;;;11.77;7.67;;;;;;;;;;5073290;28;20821;-87
2023/02/13 11:59:45;;;;;;;13.50;7.70;;;;;;;;;;5064157;28;20757;-85
2023/02/13 12:02:26;;;;;;;14.40;8.60;;;;;;;;;;5058728;28;21120;-88
2023/02/13 12:05:14;;;;;;;15.17;7.90;;;;;;;;;;5041440;28;20477;-89
2023/02/13 12:07:41;;;;;;;14.10;7.20;;;;;;;;;;5064661;28;20417;-82
2023/02/13 12:10:28;;;;;;;13.30;8.70;;;;;;;;;;5061611;28;20496;-87
2023/02/13 12:13:06;;;;;;;12.23;7.77;;;;;;;;;;5066590;28;20420;-86
2023/02/13 12:15:34;;;;;;;12.10;7.43;;;;;;;;;;5086230;28;20431;-84
2023/02/13 12:18:06;;;;;;;13.30;8.20;;;;;;;;;;5064404;28;20544;-84
2023/02/13 12:20:38;;;;;;;15.67;8.50;;;;;;;;;;5085034;28;20403;-84
2023/02/13 12:23:13;;;;;;;16.53;7.93;;;;;;;;;;5063416;28;20435;-86
2023/02/13 12:25:45;;;;;;;13.97;7.90;;;;;;;;;;5073615;28;20448;-90
2023/02/13 12:28:23;;;;;;;13.13;7.70;;;;;;;;;;5075945;28;20405;-85
2023/02/13 12:30:58;;;;;;;14.17;9.63;;;;;;;;;;5075150;28;20970;-85
2023/02/13 12:33:37;;;;;;;14.83;9.30;;;;;;;;;;5073003;28;20472;-83
2023/02/13 12:36:13;;;;;;;13.70;8.13;;;;;;;;;;5056783;28;20439;-88
2023/02/13 12:38:39;;;;;;;11.93;8.23;;;;;;;;;;5053868;28;20428;-84
2023/02/13 12:41:15;;;;;;;12.57;6.90;;;;;;;;;;5053520;28;20486;-85
2023/02/13 12:43:57;;;;;;;17.00;7.90;;;;;;;;;;5055071;28;20180;-83
2023/02/13 12:46:25;;;;;;;11.83;7.03;;;;;;;;;;5068694;28;20501;-82
2023/02/13 12:48:56;;;;;;;17.80;9.90;;;;;;;;;;5074286;28;20428;-87
2023/02/13 12:51:34;;;;;;;14.13;7.67;;;;;;;;;;5061885;28;20408;-82
2023/02/13 12:54:00;;;;;;;13.40;7.93;;;;;;;;;;5063819;28;20421;-83
2023/02/13 12:56:32;;;;;;;16.93;8.80;;;;;;;;;;5061863;28;20483;-84
2023/02/13 12:59:08;;;;;;;14.13;8.40;;;;;;;;;;5062077;28;20409;-80
2023/02/13 13:01:53;;;;;;;14.77;8.03;;;;;;;;;;5061890;28;20541;-82
2023/02/13 13:04:39;;;;;;;17.00;8.63;;;;;;;;;;5021220;28;20461;-83
2023/02/13 13:07:15;;;;;;;15.63;9.10;;;;;;;;;;5067836;28;20430;-84
2023/02/13 13:09:47;;;;;;;17.47;8.80;;;;;;;;;;5070151;28;20466;-86
2023/02/13 13:12:13;;;;;;;17.10;8.77;;;;;;;;;;5061782;28;20428;-83
2023/02/13 13:15:05;;;;;;;16.10;8.93;;;;;;;;;;5061093;28;20408;-83
2023/02/13 13:17:43;;;;;;;16.40;9.63;;;;;;;;;;5059570;28;20409;-88
2023/02/13 13:20:36;;;;;;;15.10;8.73;;;;;;;;;;5080092;28;20419;-85
2023/02/13 13:23:07;;;;;;;16.33;9.00;;;;;;;;;;5065228;28;20485;-84
2023/02/13 13:25:43;;;;;;;14.80;8.90;;;;;;;;;;5065652;28;20397;-84
2023/02/13 13:28:14;;;;;;;16.40;8.40;;;;;;;;;;5067497;28;20955;-85
2023/02/13 13:30:41;;;;;;;14.77;8.73;;;;;;;;;;5084644;28;20903;-92
2023/02/13 13:33:18;;;;;;;13.83;8.20;;;;;;;;;;5079322;28;20790;-86
2023/02/13 13:35:49;;;;;;;16.17;9.53;;;;;;;;;;5060968;28;20427;-86
2023/02/13 13:38:24;;;;;;;13.33;7.93;;;;;;;;;;5064283;28;20428;-85
2023/02/13 13:40:59;;;;;;;15.90;8.53;;;;;;;;;;5077798;28;20467;-87
2023/02/13 13:43:39;;;;;;;18.20;8.97;;;;;;;;;;5070571;28;20418;-87
2023/02/13 13:46:11;;;;;;;16.70;9.03;;;;;;;;;;5073772;28;20459;-84
2023/02/13 13:48:37;;;;;;;19.50;10.10;;;;;;;;;;5072297;28;20908;-87
2023/02/13 13:51:05;;;;;;;15.60;8.60;;;;;;;;;;5073068;28;20467;-86
2023/02/13 13:53:31;;;;;;;16.20;9.33;;;;;;;;;;5063434;28;20422;-87
2023/02/13 13:55:57;;;;;;;18.10;9.43;;;;;;;;;;5052727;28;20417;-87
2023/02/13 13:58:24;;;;;;;19.67;9.70;;;;;;;;;;5053164;28;20783;-84
2023/02/13 14:01:09;;;;;;;17.73;9.30;;;;;;;;;;5057660;28;20177;-85
2023/02/13 14:03:36;;;;;;;23.30;12.60;;;;;;;;;;5073153;28;20603;-86
2023/02/13 14:06:04;;;;;;;20.40;9.20;;;;;;;;;;5073952;28;20404;-85
2023/02/13 14:08:39;;;;;;;18.47;9.53;;;;;;;;;;5072496;28;20428;-84
2023/02/13 14:11:05;;;;;;;18.10;9.70;;;;;;;;;;5072313;28;20412;-84
2023/02/13 14:13:33;;;;;;;19.13;10.07;;;;;;;;;;5072146;28;20909;-89
2023/02/13 14:15:59;;;;;;;22.07;9.80;;;;;;;;;;5074091;28;20460;-86
2023/02/13 14:18:26;;;;;;;17.07;9.83;;;;;;;;;;5072082;28;20425;-85
2023/02/13 14:20:53;;;;;;;24.87;11.23;;;;;;;;;;5073283;28;20491;-83
2023/02/13 14:23:25;;;;;;;20.63;10.90;;;;;;;;;;5071692;28;20427;-83
2023/02/13 14:26:11;;;;;;;17.97;11.57;;;;;;;;;;5071541;28;20436;-83
2023/02/13 14:28:38;;;;;;;23.30;11.17;;;;;;;;;;5073098;28;20433;-84
2023/02/13 14:31:13;;;;;;;20.23;11.37;;;;;;;;;;5073366;28;20416;-84
2023/02/13 14:33:39;;;;;;;25.73;10.77;;;;;;;;;;5072780;28;20410;-83
2023/02/13 14:36:19;;;;;;;20.30;12.43;;;;;;;;;;5071587;28;20954;-88
2023/02/13 14:38:54;;;;;;;25.00;12.93;;;;;;;;;;5074490;28;20415;-84
2023/02/13 14:41:41;;;;;;;26.27;13.30;;;;;;;;;;5074179;28;20476;-85
2023/02/13 14:44:14;;;;;;;21.43;13.13;;;;;;;;;;5053496;28;20437;-86
2023/02/13 14:46:41;;;;;;;23.23;13.90;;;;;;;;;;5052987;28;20407;-87
2023/02/13 14:49:13;;;;;;;19.83;11.70;;;;;;;;;;5071267;28;20440;-86
2023/02/13 14:51:40;;;;;;;18.60;11.13;;;;;;;;;;5071517;28;20506;-85
2023/02/13 14:54:09;;;;;;;21.07;11.47;;;;;;;;;;5071217;28;20413;-84
2023/02/13 14:56:37;;;;;;;20.60;10.90;;;;;;;;;;5073084;28;20412;-83
2023/02/13 14:59:11;;;;;;;22.23;12.03;;;;;;;;;;5073426;28;20412;-86
2023/02/13 15:01:42;;;;;;;20.87;11.07;;;;;;;;;;5030450;28;20474;-87
2023/02/13 15:04:14;;;;;;;22.30;11.93;;;;;;;;;;5073008;28;20468;-87
2023/02/13 15:06:41;;;;;;;23.33;12.70;;;;;;;;;;5072120;28;20427;-87
2023/02/13 15:09:17;;;;;;;24.80;13.13;;;;;;;;;;5071496;28;20825;-86
2023/02/13 15:11:44;;;;;;;24.83;12.03;;;;;;;;;;5071031;28;20408;-86
2023/02/13 15:14:16;;;;;;;24.57;13.13;;;;;;;;;;5071826;28;20402;-86
2023/02/13 15:16:43;;;;;;;21.70;12.77;;;;;;;;;;5069908;28;20413;-84
2023/02/13 15:19:17;;;;;;;20.60;12.40;;;;;;;;;;5052082;28;20494;-86
2023/02/13 15:21:48;;;;;;;21.33;12.00;;;;;;;;;;5050581;28;20521;-86
2023/02/13 15:24:14;;;;;;;24.03;12.53;;;;;;;;;;5055121;28;20770;-85
2023/02/13 15:26:40;;;;;;;21.50;12.03;;;;;;;;;;5059677;28;20411;-86
2023/02/13 15:29:15;;;;;;;29.67;13.40;;;;;;;;;;5058284;28;20785;-84